sensor_id;sensor_type;location;lat;lon;timestamp;pressure;altitude;pressure_sealevel;temperature;humidity
23166;BME280;11751;42.700;24.170;2023-01-26T00:00:29;94479.09;;;0.24;91.97
23166;BME280;11751;42.700;24.170;2023-01-26T00:02:55;94484.84;;;0.26;92.37
23166;BME280;11751;42.700;24.170;2023-01-26T00:05:21;94474.25;;;0.19;92.19
23166;BME280;11751;42.700;24.170;2023-01-26T00:07:46;94472.19;;;0.14;92.09
23166;BME280;11751;42.700;24.170;2023-01-26T00:10:12;94478.09;;;0.07;92.61
23166;BME280;11751;42.700;24.170;2023-01-26T00:12:37;94470.75;;;-0.01;92.56
23166;BME280;11751;42.700;24.170;2023-01-26T00:15:03;94473.00;;;0.00;92.28
23166;BME280;11751;42.700;24.170;2023-01-26T00:17:29;94460.06;;;0.06;92.44
23166;BME280;11751;42.700;24.170;2023-01-26T00:19:56;94468.47;;;0.17;92.12
23166;BME280;11751;42.700;24.170;2023-01-26T00:22:23;94455.38;;;-0.07;91.94
23166;BME280;11751;42.700;24.170;2023-01-26T00:24:48;94455.38;;;-0.07;92.67
23166;BME280;11751;42.700;24.170;2023-01-26T00:27:14;94471.44;;;0.14;92.65
23166;BME280;11751;42.700;24.170;2023-01-26T00:32:05;94459.53;;;0.02;nan
23166;BME280;11751;42.700;24.170;2023-01-26T00:34:30;94460.53;;;-0.15;nan
23166;BME280;11751;42.700;24.170;2023-01-26T00:36:55;94452.16;;;-0.06;nan
23166;BME280;11751;42.700;24.170;2023-01-26T00:39:21;94455.59;;;-0.11;nan
23166;BME280;11751;42.700;24.170;2023-01-26T00:41:46;94457.78;;;-0.15;nan
23166;BME280;11751;42.700;24.170;2023-01-26T00:44:30;94449.94;;;-0.22;nan
23166;BME280;11751;42.700;24.170;2023-01-26T00:46:55;94449.72;;;-0.18;nan
23166;BME280;11751;42.700;24.170;2023-01-26T00:49:21;94426.88;;;-0.04;nan
23166;BME280;11751;42.700;24.170;2023-01-26T00:51:46;94431.84;;;-0.28;nan
23166;BME280;11751;42.700;24.170;2023-01-26T00:54:12;94433.19;;;-0.38;nan
23166;BME280;11751;42.700;24.170;2023-01-26T00:56:37;94421.03;;;-0.32;nan
23166;BME280;11751;42.700;24.170;2023-01-26T00:59:02;94423.00;;;-0.32;nan
23166;BME280;11751;42.700;24.170;2023-01-26T01:01:28;94418.44;;;-0.21;nan
23166;BME280;11751;42.700;24.170;2023-01-26T01:03:53;94413.25;;;-0.13;nan
23166;BME280;11751;42.700;24.170;2023-01-26T01:06:19;94396.44;;;-0.21;nan
23166;BME280;11751;42.700;24.170;2023-01-26T01:08:44;94388.47;;;-0.33;nan
23166;BME280;11751;42.700;24.170;2023-01-26T01:11:10;94383.28;;;-0.11;nan
23166;BME280;11751;42.700;24.170;2023-01-26T01:13:36;94392.09;;;-0.27;nan
23166;BME280;11751;42.700;24.170;2023-01-26T01:16:10;94396.81;;;-0.08;nan
23166;BME280;11751;42.700;24.170;2023-01-26T01:18:36;94379.41;;;0.00;nan
23166;BME280;11751;42.700;24.170;2023-01-26T01:21:06;94390.28;;;-0.10;nan
23166;BME280;11751;42.700;24.170;2023-01-26T01:23:32;94387.97;;;-0.17;nan
23166;BME280;11751;42.700;24.170;2023-01-26T01:25:58;94381.38;;;-0.05;nan
23166;BME280;11751;42.700;24.170;2023-01-26T01:28:24;94388.91;;;-0.01;nan
23166;BME280;11751;42.700;24.170;2023-01-26T01:30:50;94389.25;;;0.07;nan
23166;BME280;11751;42.700;24.170;2023-01-26T01:33:15;94385.06;;;0.11;nan
23166;BME280;11751;42.700;24.170;2023-01-26T01:35:41;94384.22;;;-0.14;nan
23166;BME280;11751;42.700;24.170;2023-01-26T01:38:06;94384.84;;;-0.05;nan
23166;BME280;11751;42.700;24.170;2023-01-26T01:40:32;94388.25;;;0.04;nan
23166;BME280;11751;42.700;24.170;2023-01-26T01:42:57;94381.00;;;0.07;nan
23166;BME280;11751;42.700;24.170;2023-01-26T01:47:53;94395.19;;;0.00;nan
23166;BME280;11751;42.700;24.170;2023-01-26T01:50:20;94397.59;;;0.12;nan
23166;BME280;11751;42.700;24.170;2023-01-26T01:52:46;94396.72;;;0.26;nan
23166;BME280;11751;42.700;24.170;2023-01-26T01:55:14;94396.72;;;0.26;nan
23166;BME280;11751;42.700;24.170;2023-01-26T01:57:48;94393.81;;;0.35;nan
23166;BME280;11751;42.700;24.170;2023-01-26T02:00:19;94394.16;;;0.43;nan
23166;BME280;11751;42.700;24.170;2023-01-26T02:02:56;94403.72;;;0.47;nan
23166;BME280;11751;42.700;24.170;2023-01-26T02:05:53;94400.53;;;0.54;nan
23166;BME280;11751;42.700;24.170;2023-01-26T02:08:23;94392.19;;;0.43;nan
23166;BME280;11751;42.700;24.170;2023-01-26T02:10:53;94388.78;;;0.54;nan
23166;BME280;11751;42.700;24.170;2023-01-26T02:13:19;94395.25;;;0.51;nan
23166;BME280;11751;42.700;24.170;2023-01-26T02:15:46;94396.97;;;0.48;nan
23166;BME280;11751;42.700;24.170;2023-01-26T02:18:12;94376.34;;;0.64;nan
23166;BME280;11751;42.700;24.170;2023-01-26T02:28:28;94368.25;;;0.80;nan
23166;BME280;11751;42.700;24.170;2023-01-26T02:30:54;94367.06;;;0.61;nan
23166;BME280;11751;42.700;24.170;2023-01-26T02:33:23;94362.03;;;0.34;nan
23166;BME280;11751;42.700;24.170;2023-01-26T02:35:49;94348.09;;;0.18;nan
23166;BME280;11751;42.700;24.170;2023-01-26T02:38:15;94343.88;;;0.22;nan
23166;BME280;11751;42.700;24.170;2023-01-26T02:40:53;94352.31;;;0.13;nan
23166;BME280;11751;42.700;24.170;2023-01-26T02:43:20;94353.31;;;0.16;nan
23166;BME280;11751;42.700;24.170;2023-01-26T02:45:48;94339.16;;;0.03;nan
23166;BME280;11751;42.700;24.170;2023-01-26T02:48:13;94334.81;;;-0.03;nan
23166;BME280;11751;42.700;24.170;2023-01-26T02:50:58;94340.34;;;-0.03;nan
23166;BME280;11751;42.700;24.170;2023-01-26T02:53:24;94328.38;;;-0.01;nan
23166;BME280;11751;42.700;24.170;2023-01-26T02:55:49;94324.13;;;-0.21;nan
23166;BME280;11751;42.700;24.170;2023-01-26T02:58:16;94325.28;;;-0.08;nan
23166;BME280;11751;42.700;24.170;2023-01-26T03:00:42;94320.25;;;-0.09;nan
23166;BME280;11751;42.700;24.170;2023-01-26T03:03:27;94319.56;;;-0.24;nan
23166;BME280;11751;42.700;24.170;2023-01-26T03:06:10;94319.69;;;-0.13;nan
23166;BME280;11751;42.700;24.170;2023-01-26T03:08:36;94322.19;;;-0.15;nan
23166;BME280;11751;42.700;24.170;2023-01-26T03:11:03;94309.53;;;-0.27;nan
23166;BME280;11751;42.700;24.170;2023-01-26T03:13:29;94307.38;;;-0.18;nan
23166;BME280;11751;42.700;24.170;2023-01-26T03:15:54;94309.53;;;-0.27;nan
23166;BME280;11751;42.700;24.170;2023-01-26T03:18:21;94308.63;;;-0.19;nan
23166;BME280;11751;42.700;24.170;2023-01-26T03:21:09;94295.38;;;-0.20;nan
23166;BME280;11751;42.700;24.170;2023-01-26T03:23:54;94288.63;;;-0.19;nan
23166;BME280;11751;42.700;24.170;2023-01-26T03:26:38;94296.44;;;-0.12;nan
23166;BME280;11751;42.700;24.170;2023-01-26T03:29:22;94293.28;;;-0.05;nan
23166;BME280;11751;42.700;24.170;2023-01-26T03:31:48;94281.03;;;-0.24;nan
23166;BME280;11751;42.700;24.170;2023-01-26T03:34:14;94285.16;;;-0.14;nan
23166;BME280;11751;42.700;24.170;2023-01-26T03:36:39;94281.56;;;-0.01;nan
23166;BME280;11751;42.700;24.170;2023-01-26T03:39:05;94288.66;;;0.06;nan
23166;BME280;11751;42.700;24.170;2023-01-26T03:41:30;94273.75;;;-0.07;nan
23166;BME280;11751;42.700;24.170;2023-01-26T03:44:14;94283.03;;;-0.05;nan
23166;BME280;11751;42.700;24.170;2023-01-26T03:46:58;94281.63;;;0.05;nan
23166;BME280;11751;42.700;24.170;2023-01-26T03:49:42;94274.28;;;-0.03;nan
23166;BME280;11751;42.700;24.170;2023-01-26T03:52:26;94265.63;;;0.03;nan
23166;BME280;11751;42.700;24.170;2023-01-26T03:55:10;94266.56;;;0.00;nan
23166;BME280;11751;42.700;24.170;2023-01-26T03:57:55;94248.81;;;0.01;nan
23166;BME280;11751;42.700;24.170;2023-01-26T04:00:20;94236.41;;;0.11;nan
23166;BME280;11751;42.700;24.170;2023-01-26T04:02:46;94252.03;;;0.25;nan
23166;BME280;11751;42.700;24.170;2023-01-26T04:05:30;94240.34;;;0.30;nan
23166;BME280;11751;42.700;24.170;2023-01-26T04:08:15;94249.44;;;0.16;nan
23166;BME280;11751;42.700;24.170;2023-01-26T04:10:54;94256.25;;;0.21;nan
23166;BME280;11751;42.700;24.170;2023-01-26T04:13:21;94272.47;;;0.13;nan
23166;BME280;11751;42.700;24.170;2023-01-26T04:16:07;94268.03;;;-0.04;nan
23166;BME280;11751;42.700;24.170;2023-01-26T04:18:51;94268.88;;;0.07;nan
23166;BME280;11751;42.700;24.170;2023-01-26T04:21:35;94252.16;;;0.11;nan
23166;BME280;11751;42.700;24.170;2023-01-26T04:24:03;94265.13;;;0.30;nan
23166;BME280;11751;42.700;24.170;2023-01-26T04:26:38;94252.13;;;0.36;nan
23166;BME280;11751;42.700;24.170;2023-01-26T04:29:07;94249.78;;;0.24;nan
23166;BME280;11751;42.700;24.170;2023-01-26T04:31:33;94250.63;;;0.35;nan
23166;BME280;11751;42.700;24.170;2023-01-26T04:33:59;94233.03;;;0.27;nan
23166;BME280;11751;42.700;24.170;2023-01-26T04:36:25;94226.00;;;0.26;nan
23166;BME280;11751;42.700;24.170;2023-01-26T04:38:51;94226.75;;;0.21;nan
23166;BME280;11751;42.700;24.170;2023-01-26T04:41:16;94219.72;;;0.20;nan
23166;BME280;11751;42.700;24.170;2023-01-26T04:43:42;94222.25;;;0.24;nan
23166;BME280;11751;42.700;24.170;2023-01-26T04:46:07;94218.06;;;0.34;nan
23166;BME280;11751;42.700;24.170;2023-01-26T04:48:34;94211.72;;;0.22;nan
23166;BME280;11751;42.700;24.170;2023-01-26T04:51:02;94204.72;;;0.21;nan
23166;BME280;11751;42.700;24.170;2023-01-26T04:53:28;94200.72;;;0.22;nan
23166;BME280;11751;42.700;24.170;2023-01-26T04:55:54;94204.22;;;0.23;nan
23166;BME280;11751;42.700;24.170;2023-01-26T04:58:19;94193.56;;;0.36;nan
23166;BME280;11751;42.700;24.170;2023-01-26T05:00:50;94182.97;;;0.23;nan
23166;BME280;11751;42.700;24.170;2023-01-26T05:03:15;94189.13;;;0.13;nan
23166;BME280;11751;42.700;24.170;2023-01-26T05:05:41;94190.06;;;0.10;nan
23166;BME280;11751;42.700;24.170;2023-01-26T05:08:06;94185.78;;;0.03;nan
23166;BME280;11751;42.700;24.170;2023-01-26T05:10:32;94185.13;;;0.14;nan
23166;BME280;11751;42.700;24.170;2023-01-26T05:12:58;94178.41;;;0.20;nan
23166;BME280;11751;42.700;24.170;2023-01-26T05:15:24;94190.16;;;0.21;nan
23166;BME280;11751;42.700;24.170;2023-01-26T05:17:49;94185.22;;;0.25;nan
23166;BME280;11751;42.700;24.170;2023-01-26T05:20:15;94181.63;;;0.13;nan
23166;BME280;11751;42.700;24.170;2023-01-26T05:22:41;94189.44;;;0.20;nan
23166;BME280;11751;42.700;24.170;2023-01-26T05:25:07;94187.47;;;0.26;nan
23166;BME280;11751;42.700;24.170;2023-01-26T05:27:33;94188.00;;;0.30;nan
23166;BME280;11751;42.700;24.170;2023-01-26T05:29:58;94185.22;;;0.25;nan
23166;BME280;11751;42.700;24.170;2023-01-26T05:32:27;94188.00;;;0.30;nan
23166;BME280;11751;42.700;24.170;2023-01-26T05:34:53;94184.16;;;0.17;nan
23166;BME280;11751;42.700;24.170;2023-01-26T05:37:18;94182.50;;;0.30;nan
23166;BME280;11751;42.700;24.170;2023-01-26T05:39:44;94185.06;;;0.39;nan
23166;BME280;11751;42.700;24.170;2023-01-26T05:42:10;94186.78;;;0.31;nan
23166;BME280;11751;42.700;24.170;2023-01-26T05:44:35;94183.03;;;0.34;nan
23166;BME280;11751;42.700;24.170;2023-01-26T05:47:00;94175.56;;;0.40;nan
23166;BME280;11751;42.700;24.170;2023-01-26T05:49:26;94196.72;;;0.23;nan
23166;BME280;11751;42.700;24.170;2023-01-26T05:51:53;94192.13;;;0.15;nan
23166;BME280;11751;42.700;24.170;2023-01-26T05:54:22;94189.19;;;0.24;nan
23166;BME280;11751;42.700;24.170;2023-01-26T05:56:48;94197.88;;;0.11;nan
23166;BME280;11751;42.700;24.170;2023-01-26T05:59:13;94189.56;;;0.06;nan
23166;BME280;11751;42.700;24.170;2023-01-26T06:01:39;94187.22;;;0.24;nan
23166;BME280;11751;42.700;24.170;2023-01-26T06:04:04;94188.53;;;0.34;nan
23166;BME280;11751;42.700;24.170;2023-01-26T06:06:30;94181.50;;;0.28;nan
23166;BME280;11751;42.700;24.170;2023-01-26T06:08:57;94180.34;;;0.45;nan
23166;BME280;11751;42.700;24.170;2023-01-26T06:11:22;94176.81;;;0.39;nan
23166;BME280;11751;42.700;24.170;2023-01-26T06:13:48;94168.59;;;0.45;nan
23166;BME280;11751;42.700;24.170;2023-01-26T06:16:13;94168.34;;;0.48;nan
23166;BME280;11751;42.700;24.170;2023-01-26T06:18:39;94174.59;;;0.43;nan
23166;BME280;11751;42.700;24.170;2023-01-26T06:21:04;94171.84;;;0.43;nan
23166;BME280;11751;42.700;24.170;2023-01-26T06:23:30;94158.28;;;0.40;nan
23166;BME280;11751;42.700;24.170;2023-01-26T06:25:59;94162.66;;;0.57;nan
23166;BME280;11751;42.700;24.170;2023-01-26T06:28:25;94164.38;;;0.49;nan
23166;BME280;11751;42.700;24.170;2023-01-26T06:30:50;94160.63;;;0.52;nan
23166;BME280;11751;42.700;24.170;2023-01-26T06:33:17;94158.38;;;0.56;nan
23166;BME280;11751;42.700;24.170;2023-01-26T06:35:43;94162.00;;;0.68;nan
23166;BME280;11751;42.700;24.170;2023-01-26T06:38:08;94159.13;;;0.51;nan
23166;BME280;11751;42.700;24.170;2023-01-26T06:40:33;94149.63;;;0.52;nan
23166;BME280;11751;42.700;24.170;2023-01-26T06:42:59;94149.41;;;0.61;nan
23166;BME280;11751;42.700;24.170;2023-01-26T06:45:24;94148.63;;;0.55;nan
23166;BME280;11751;42.700;24.170;2023-01-26T06:47:50;94149.69;;;0.63;nan
23166;BME280;11751;42.700;24.170;2023-01-26T06:50:18;94145.44;;;0.62;nan
23166;BME280;11751;42.700;24.170;2023-01-26T06:52:46;94139.03;;;0.45;nan
23166;BME280;11751;42.700;24.170;2023-01-26T06:55:21;94143.66;;;0.59;nan
23166;BME280;11751;42.700;24.170;2023-01-26T06:57:48;94138.19;;;0.70;nan
23166;BME280;11751;42.700;24.170;2023-01-26T07:00:13;94140.47;;;0.77;nan
23166;BME280;11751;42.700;24.170;2023-01-26T07:02:39;94142.22;;;0.75;nan
23166;BME280;11751;42.700;24.170;2023-01-26T07:05:05;94132.22;;;0.77;nan
23166;BME280;11751;42.700;24.170;2023-01-26T07:07:30;94135.22;;;0.74;nan
23166;BME280;11751;42.700;24.170;2023-01-26T07:09:56;94126.88;;;0.63;nan
23166;BME280;11751;42.700;24.170;2023-01-26T07:12:21;94122.19;;;0.74;nan
23166;BME280;11751;42.700;24.170;2023-01-26T07:14:47;94126.66;;;0.66;nan
23166;BME280;11751;42.700;24.170;2023-01-26T07:17:15;94119.41;;;0.74;nan
23166;BME280;11751;42.700;24.170;2023-01-26T07:19:41;94114.94;;;0.77;nan
23166;BME280;11751;42.700;24.170;2023-01-26T07:22:06;94112.66;;;0.75;nan
23166;BME280;11751;42.700;24.170;2023-01-26T07:24:32;94108.44;;;0.85;nan
23166;BME280;11751;42.700;24.170;2023-01-26T07:26:57;94105.75;;;0.96;nan
23166;BME280;11751;42.700;24.170;2023-01-26T07:29:23;94106.97;;;0.89;nan
23166;BME280;11751;42.700;24.170;2023-01-26T07:31:49;94104.47;;;0.91;nan
23166;BME280;11751;42.700;24.170;2023-01-26T07:34:14;94098.22;;;0.91;nan
23166;BME280;11751;42.700;24.170;2023-01-26T07:36:39;94098.28;;;1.02;nan
23166;BME280;11751;42.700;24.170;2023-01-26T07:39:05;94089.50;;;1.03;nan
23166;BME280;11751;42.700;24.170;2023-01-26T07:41:31;94084.06;;;1.25;nan
23166;BME280;11751;42.700;24.170;2023-01-26T07:43:57;94082.31;;;1.39;nan
23166;BME280;11751;42.700;24.170;2023-01-26T07:46:22;94068.25;;;1.26;nan
23166;BME280;11751;42.700;24.170;2023-01-26T07:48:49;94075.06;;;1.41;nan
23166;BME280;11751;42.700;24.170;2023-01-26T07:51:14;94067.78;;;1.49;nan
23166;BME280;11751;42.700;24.170;2023-01-26T07:53:39;94054.00;;;1.55;nan
23166;BME280;11751;42.700;24.170;2023-01-26T07:56:08;94058.28;;;1.67;nan
23166;BME280;11751;42.700;24.170;2023-01-26T07:58:34;94055.78;;;1.68;nan
23166;BME280;11751;42.700;24.170;2023-01-26T08:01:08;94062.81;;;1.69;nan
23166;BME280;11751;42.700;24.170;2023-01-26T08:03:34;94067.56;;;1.80;nan
23166;BME280;11751;42.700;24.170;2023-01-26T08:05:59;94063.31;;;1.84;nan
23166;BME280;11751;42.700;24.170;2023-01-26T08:08:25;94059.81;;;1.89;nan
23166;BME280;11751;42.700;24.170;2023-01-26T08:10:51;94061.81;;;1.94;nan
23166;BME280;11751;42.700;24.170;2023-01-26T08:13:19;94063.56;;;1.97;nan
23166;BME280;11751;42.700;24.170;2023-01-26T08:15:44;94054.03;;;1.98;nan
23166;BME280;11751;42.700;24.170;2023-01-26T08:18:10;94066.59;;;1.99;nan
23166;BME280;11751;42.700;24.170;2023-01-26T08:20:35;94052.25;;;2.06;nan
23166;BME280;11751;42.700;24.170;2023-01-26T08:23:01;94059.28;;;2.29;nan
23166;BME280;11751;42.700;24.170;2023-01-26T08:25:26;94062.53;;;2.22;nan
23166;BME280;11751;42.700;24.170;2023-01-26T08:27:53;94065.81;;;2.26;nan
23166;BME280;11751;42.700;24.170;2023-01-26T08:30:18;94059.03;;;2.27;nan
23166;BME280;11751;42.700;24.170;2023-01-26T08:32:44;94048.44;;;2.37;nan
23166;BME280;11751;42.700;24.170;2023-01-26T08:35:09;94046.22;;;2.24;nan
23166;BME280;11751;42.700;24.170;2023-01-26T08:37:35;94045.66;;;2.42;nan
23166;BME280;11751;42.700;24.170;2023-01-26T08:40:02;94050.44;;;2.47;nan
23166;BME280;11751;42.700;24.170;2023-01-26T08:42:27;94043.19;;;2.33;nan
23166;BME280;11751;42.700;24.170;2023-01-26T08:44:53;94038.63;;;2.41;nan
23166;BME280;11751;42.700;24.170;2023-01-26T08:47:18;94043.41;;;2.41;nan
23166;BME280;11751;42.700;24.170;2023-01-26T08:49:44;94046.47;;;2.32;nan
23166;BME280;11751;42.700;24.170;2023-01-26T08:52:09;94038.16;;;2.37;nan
23166;BME280;11751;42.700;24.170;2023-01-26T08:54:34;94040.44;;;2.28;nan
23166;BME280;11751;42.700;24.170;2023-01-26T08:57:00;94039.16;;;2.34;nan
23166;BME280;11751;42.700;24.170;2023-01-26T08:59:25;94044.41;;;2.43;nan
23166;BME280;11751;42.700;24.170;2023-01-26T09:01:51;94036.66;;;2.36;nan
23166;BME280;11751;42.700;24.170;2023-01-26T09:04:16;94033.63;;;2.45;nan
23166;BME280;11751;42.700;24.170;2023-01-26T09:06:42;94036.34;;;2.61;nan
23166;BME280;11751;42.700;24.170;2023-01-26T09:09:07;94035.31;;;2.64;nan
23166;BME280;11751;42.700;24.170;2023-01-26T09:11:38;94036.03;;;2.76;nan
23166;BME280;11751;42.700;24.170;2023-01-26T09:14:03;94024.47;;;2.77;nan
23166;BME280;11751;42.700;24.170;2023-01-26T09:16:29;94025.69;;;2.82;nan
23166;BME280;11751;42.700;24.170;2023-01-26T09:18:54;94026.69;;;2.84;nan
23166;BME280;11751;42.700;24.170;2023-01-26T09:21:20;94026.75;;;2.73;nan
23166;BME280;11751;42.700;24.170;2023-01-26T09:23:48;94023.00;;;2.60;nan
23166;BME280;11751;42.700;24.170;2023-01-26T09:26:13;94029.72;;;2.81;nan
23166;BME280;11751;42.700;24.170;2023-01-26T09:28:38;94020.69;;;2.80;nan
23166;BME280;11751;42.700;24.170;2023-01-26T09:31:08;94015.19;;;2.69;nan
23166;BME280;11751;42.700;24.170;2023-01-26T09:33:35;94021.72;;;2.72;nan
23166;BME280;11751;42.700;24.170;2023-01-26T09:36:05;94020.97;;;2.77;nan
23166;BME280;11751;42.700;24.170;2023-01-26T09:38:31;94021.16;;;2.84;nan
23166;BME280;11751;42.700;24.170;2023-01-26T09:41:04;94015.38;;;2.88;nan
23166;BME280;11751;42.700;24.170;2023-01-26T09:43:42;94004.78;;;2.92;nan
23166;BME280;11751;42.700;24.170;2023-01-26T09:51:35;93998.63;;;2.69;nan
23166;BME280;11751;42.700;24.170;2023-01-26T09:54:05;93995.56;;;2.78;nan
23166;BME280;11751;42.700;24.170;2023-01-26T09:56:38;93992.34;;;2.69;nan
23166;BME280;11751;42.700;24.170;2023-01-26T10:01:50;93978.75;;;2.71;nan
23166;BME280;11751;42.700;24.170;2023-01-26T10:06:52;93969.44;;;2.74;nan
23166;BME280;11751;42.700;24.170;2023-01-26T10:09:21;93966.97;;;2.65;nan
23166;BME280;11751;42.700;24.170;2023-01-26T10:11:54;93950.91;;;2.63;nan
23166;BME280;11751;42.700;24.170;2023-01-26T10:14:36;93958.56;;;2.87;nan
23166;BME280;11751;42.700;24.170;2023-01-26T10:17:06;93955.06;;;2.81;nan
23166;BME280;11751;42.700;24.170;2023-01-26T10:20:04;93950.31;;;2.81;nan
23166;BME280;11751;42.700;24.170;2023-01-26T10:22:37;93951.06;;;2.82;nan
23166;BME280;11751;42.700;24.170;2023-01-26T10:25:18;93950.50;;;2.89;nan
23166;BME280;11751;42.700;24.170;2023-01-26T10:27:45;93944.50;;;2.85;nan
23166;BME280;11751;42.700;24.170;2023-01-26T10:30:13;93936.50;;;2.76;nan
23166;BME280;11751;42.700;24.170;2023-01-26T10:32:40;93940.72;;;2.88;nan
23166;BME280;11751;42.700;24.170;2023-01-26T10:35:14;93928.38;;;2.89;nan
23166;BME280;11751;42.700;24.170;2023-01-26T10:37:40;93921.81;;;2.97;nan
23166;BME280;11751;42.700;24.170;2023-01-26T10:40:06;93900.72;;;2.89;nan
23166;BME280;11751;42.700;24.170;2023-01-26T10:42:34;93905.41;;;3.05;nan
23166;BME280;11751;42.700;24.170;2023-01-26T10:45:04;93909.28;;;2.91;nan
23166;BME280;11751;42.700;24.170;2023-01-26T10:47:30;93897.75;;;2.87;nan
23166;BME280;11751;42.700;24.170;2023-01-26T10:50:19;93892.16;;;2.98;nan
23166;BME280;11751;42.700;24.170;2023-01-26T10:53:02;93887.06;;;3.02;nan
23166;BME280;11751;42.700;24.170;2023-01-26T10:55:30;93872.56;;;2.96;nan
23166;BME280;11751;42.700;24.170;2023-01-26T10:57:57;93871.78;;;2.95;nan
23166;BME280;11751;42.700;24.170;2023-01-26T11:00:27;93869.53;;;2.94;nan
23166;BME280;11751;42.700;24.170;2023-01-26T11:03:17;93863.84;;;2.81;nan
23166;BME280;11751;42.700;24.170;2023-01-26T11:05:43;93849.22;;;2.91;nan
23166;BME280;11751;42.700;24.170;2023-01-26T11:08:35;93847.50;;;2.83;nan
23166;BME280;11751;42.700;24.170;2023-01-26T11:11:03;93834.38;;;2.89;nan
23166;BME280;11751;42.700;24.170;2023-01-26T11:13:28;93827.56;;;2.90;nan
23166;BME280;11751;42.700;24.170;2023-01-26T11:16:20;93815.75;;;2.95;nan
23166;BME280;11751;42.700;24.170;2023-01-26T11:19:02;93815.25;;;2.91;nan
23166;BME280;11751;42.700;24.170;2023-01-26T11:21:37;93819.53;;;2.92;nan
23166;BME280;11751;42.700;24.170;2023-01-26T11:24:14;93812.16;;;3.00;nan
23166;BME280;11751;42.700;24.170;2023-01-26T11:29:49;93802.47;;;3.17;nan
23166;BME280;11751;42.700;24.170;2023-01-26T11:40:34;93772.84;;;3.36;nan
23166;BME280;11751;42.700;24.170;2023-01-26T11:46:17;93749.41;;;3.42;nan
23166;BME280;11751;42.700;24.170;2023-01-26T11:49:11;93753.16;;;3.21;nan
23166;BME280;11751;42.700;24.170;2023-01-26T11:54:33;93753.03;;;3.32;nan
23166;BME280;11751;42.700;24.170;2023-01-26T11:57:10;93765.72;;;3.46;nan
23166;BME280;11751;42.700;24.170;2023-01-26T11:59:44;93746.88;;;3.44;nan
23166;BME280;11751;42.700;24.170;2023-01-26T12:02:29;93731.88;;;3.35;nan
23166;BME280;11751;42.700;24.170;2023-01-26T12:04:59;93733.38;;;3.36;nan
23166;BME280;11751;42.700;24.170;2023-01-26T12:07:32;93741.09;;;3.42;nan
23166;BME280;11751;42.700;24.170;2023-01-26T12:10:16;93724.09;;;3.33;nan
23166;BME280;11751;42.700;24.170;2023-01-26T12:12:50;93731.13;;;3.34;nan
23166;BME280;11751;42.700;24.170;2023-01-26T12:15:28;93735.44;;;3.30;nan
23166;BME280;11751;42.700;24.170;2023-01-26T12:18:18;93737.41;;;3.35;nan
23166;BME280;11751;42.700;24.170;2023-01-26T12:20:51;93728.69;;;3.25;nan
23166;BME280;11751;42.700;24.170;2023-01-26T12:23:46;93729.34;;;3.37;nan
23166;BME280;11751;42.700;24.170;2023-01-26T12:26:21;93723.22;;;3.20;nan
23166;BME280;11751;42.700;24.170;2023-01-26T12:29:20;93718.63;;;3.28;nan
23166;BME280;11751;42.700;24.170;2023-01-26T12:34:24;93714.94;;;3.20;nan
23166;BME280;11751;42.700;24.170;2023-01-26T12:39:47;93711.19;;;3.17;nan
23166;BME280;11751;42.700;24.170;2023-01-26T12:42:34;93699.81;;;3.21;nan
23166;BME280;11751;42.700;24.170;2023-01-26T12:45:06;93696.56;;;3.22;nan
23166;BME280;11751;42.700;24.170;2023-01-26T12:47:41;93700.31;;;3.25;nan
23166;BME280;11751;42.700;24.170;2023-01-26T12:58:05;93690.16;;;3.33;nan
23166;BME280;11751;42.700;24.170;2023-01-26T13:00:36;93693.88;;;3.35;nan
23166;BME280;11751;42.700;24.170;2023-01-26T13:05:32;93686.34;;;3.36;nan
23166;BME280;11751;42.700;24.170;2023-01-26T13:10:56;93665.25;;;3.33;nan
23166;BME280;11751;42.700;24.170;2023-01-26T13:13:50;93679.97;;;3.40;nan
23166;BME280;11751;42.700;24.170;2023-01-26T13:18:49;93671.38;;;3.44;nan
23166;BME280;11751;42.700;24.170;2023-01-26T13:23:53;93667.22;;;3.38;nan
23166;BME280;11751;42.700;24.170;2023-01-26T13:26:42;93662.06;;;3.47;nan
23166;BME280;11751;42.700;24.170;2023-01-26T13:31:48;93663.09;;;3.44;nan
23166;BME280;11751;42.700;24.170;2023-01-26T13:34:15;93662.44;;;3.56;nan
23166;BME280;11751;42.700;24.170;2023-01-26T13:36:44;93674.19;;;3.62;nan
23166;BME280;11751;42.700;24.170;2023-01-26T13:39:34;93664.44;;;3.56;nan
23166;BME280;11751;42.700;24.170;2023-01-26T13:41:59;93670.75;;;3.56;nan
23166;BME280;11751;42.700;24.170;2023-01-26T13:44:45;93663.72;;;3.55;nan
23166;BME280;11751;42.700;24.170;2023-01-26T13:47:19;93652.09;;;3.38;nan
23166;BME280;11751;42.700;24.170;2023-01-26T13:49:47;93654.03;;;3.43;nan
23166;BME280;11751;42.700;24.170;2023-01-26T13:52:22;93649.19;;;3.49;nan
23166;BME280;11751;42.700;24.170;2023-01-26T13:54:52;93653.00;;;3.46;nan
23166;BME280;11751;42.700;24.170;2023-01-26T13:57:25;93645.69;;;3.49;nan
23166;BME280;11751;42.700;24.170;2023-01-26T13:59:56;93648.75;;;3.45;nan
23166;BME280;11751;42.700;24.170;2023-01-26T14:02:33;93651.34;;;3.38;nan
23166;BME280;11751;42.700;24.170;2023-01-26T14:05:01;93638.41;;;3.46;nan
23166;BME280;11751;42.700;24.170;2023-01-26T14:07:31;93637.34;;;3.31;nan
23166;BME280;11751;42.700;24.170;2023-01-26T14:09:59;93629.75;;;3.37;nan
23166;BME280;11751;42.700;24.170;2023-01-26T14:12:34;93621.22;;;3.35;nan
23166;BME280;11751;42.700;24.170;2023-01-26T14:15:05;93625.72;;;3.38;nan
23166;BME280;11751;42.700;24.170;2023-01-26T14:17:45;93614.78;;;3.45;nan
23166;BME280;11751;42.700;24.170;2023-01-26T14:20:24;93608.28;;;3.42;nan
23166;BME280;11751;42.700;24.170;2023-01-26T14:23:14;93612.06;;;3.39;nan
23166;BME280;11751;42.700;24.170;2023-01-26T14:25:48;93612.44;;;3.31;nan
23166;BME280;11751;42.700;24.170;2023-01-26T14:28:21;93602.34;;;3.15;nan
23166;BME280;11751;42.700;24.170;2023-01-26T14:30:52;93594.28;;;3.17;nan
23166;BME280;11751;42.700;24.170;2023-01-26T14:33:21;93583.03;;;3.09;nan
23166;BME280;11751;42.700;24.170;2023-01-26T14:35:59;93582.97;;;3.15;nan
23166;BME280;11751;42.700;24.170;2023-01-26T14:38:29;93585.41;;;3.00;nan
23166;BME280;11751;42.700;24.170;2023-01-26T14:41:09;93571.00;;;3.07;nan